Dubbo Cooreena Rd, New South Wales

1:24 AM AEST on May 28, 2015 (GMT +1000)
West Dubbo | | Change Station
CLOSE
Current Station
Personal Weather Station
Location: Dubbo, NEW SOUTH WALES
Elevation: 951 ft
Nearby Weather Stations

Elev 951 ft 32.24 °S, 148.59 °E | Updated 4 minutes ago

Overcast
Overcast
53.6 °F
Feels Like 53.6 °F
N
0.0
Wind Variable Wind from North
Gusts 1.0 mph

Today
High -- | Low -- °F
--% Chance of Precip.
Yesterday
High -- | Low -- °F
Precip. -- in
6:55 AM 5:10 PM
Waxing Gibbous, 68% visible
Pressure 30.21 in
Visibility 6.2 miles
Clouds Scattered Clouds 4800 ft
Overcast 9100 ft
Dew Point 50 °F
Humidity 87%
Rainfall 0.00 in
Snow Depth Not available.
UV 0 out of 12
Pollen Not available.
Air Quality Not available.
Flu Activity Not available.
METAR YSDU 271500Z AUTO 13005KT 9999 // SCT048 OVC091 12/10 Q1023

More Conditions Fewer Conditions

Pressure 30.21 in
Visibility 6.2 miles
Clouds Scattered Clouds 4800 ft
Overcast 9100 ft
Dew Point 50 °F
Humidity 87%
Rainfall 0.00 in
Snow Depth Not available.
UV 0 out of 12
Pollen Not available.
Air Quality Not available.
Flu Activity Not available.
METAR YSDU 271500Z AUTO 13005KT 9999 // SCT048 OVC091 12/10 Q1023

More Conditions Fewer Conditions

10-Day Weather Forecast

Almanac

Astronomy

May. 28, 2015 Rise Set
Actual Time
Civil Twilight
Nautical Twilight
Astronomical Twilight
Moon
Length of Visible Light
Length of Day
Tomorrow will be .
, % of the Moon is Illuminated

Today's Extremes

Country Highs Country Lows

Community

WunderPhotos

Upload Photos

1,824,697 photos uploaded!

WunderBlogs® & News

Nearby

Air Quality

  Air Quality AQ Index Pollutant
Not available.

Snow Depth

Station Depth Elevation

Earthquake Activity

City Distance Mag. Time & Date
Minimum magnitude displayed is 2.5.

Coastal Water Temperatures

Place Temperature

Stations

Nearby Weather Stations

Station Location Temp. Windchill Dew Point Humidity Wind Precip. Elev Updated Type